Time;durP1;ratioP1;P1;durP2;ratioP2;P2;SDS_P1;SDS_P2;PMS_P1;PMS_P2;Temp;Humidity;BMP_temperature;BMP_pressure;BME280_temperature;BME280_humidity;BME280_pressure;Samples;Min_cycle;Max_cycle;Signal;HPM_P1;HPM_P2
2022/09/13 00:01:47;;;;;;;20.40;17.77;;;17.90;99.90;;;;;;7391667;19;20022;-80
2022/09/13 00:04:13;;;;;;;26.58;20.75;;;17.90;99.90;;;;;;7394278;19;20018;-79
2022/09/13 00:06:39;;;;;;;19.83;16.67;;;17.90;99.90;;;;;;7393237;19;20030;-79
2022/09/13 00:09:05;;;;;;;27.90;21.10;;;17.90;99.90;;;;;;7394670;19;20465;-79
2022/09/13 00:11:30;;;;;;;28.75;21.67;;;17.90;99.90;;;;;;7395328;19;20018;-80
2022/09/13 00:13:57;;;;;;;22.40;18.40;;;17.90;99.90;;;;;;7393201;19;20377;-79
2022/09/13 00:16:25;;;;;;;24.00;19.83;;;17.90;99.90;;;;;;7394475;19;20025;-80
2022/09/13 00:18:53;;;;;;;24.98;20.80;;;17.90;99.90;;;;;;7394123;19;20074;-80
2022/09/13 00:21:20;;;;;;;10.40;9.35;;;17.90;99.90;;;;;;7394723;19;20015;-79
2022/09/13 00:23:48;;;;;;;21.92;19.00;;;17.90;99.90;;;;;;7392159;19;20484;-80
2022/09/13 00:26:20;;;;;;;23.13;19.05;;;17.90;99.90;;;;;;7392424;19;20066;-80
2022/09/13 00:28:51;;;;;;;24.23;21.15;;;17.90;99.90;;;;;;7392992;19;20041;-81
2022/09/13 00:31:17;;;;;;;23.58;17.35;;;17.90;99.90;;;;;;7394705;19;20018;-80
2022/09/13 00:33:43;;;;;;;20.05;15.77;;;18.00;99.90;;;;;;7391947;19;20074;-80
2022/09/13 00:36:10;;;;;;;27.20;23.52;;;17.90;99.90;;;;;;7393767;19;20041;-80
2022/09/13 00:38:40;;;;;;;15.60;13.52;;;17.90;99.90;;;;;;7392475;19;20018;-81
2022/09/13 00:41:11;;;;;;;25.13;20.55;;;17.90;99.90;;;;;;7393727;19;20051;-80
2022/09/13 00:43:43;;;;;;;26.60;22.15;;;17.90;99.90;;;;;;7392395;19;20476;-80
2022/09/13 00:46:16;;;;;;;21.58;16.92;;;17.90;99.90;;;;;;7389959;19;20037;-80
2022/09/13 00:48:45;;;;;;;24.88;19.83;;;17.90;99.90;;;;;;7392094;19;20018;-80
2022/09/13 00:51:11;;;;;;;29.63;22.10;;;17.80;99.90;;;;;;7392696;19;20023;-80
2022/09/13 00:53:42;;;;;;;23.95;20.88;;;17.80;99.90;;;;;;7390480;19;20479;-80
2022/09/13 00:56:20;;;;;;;28.65;21.27;;;17.70;99.90;;;;;;7391183;19;20024;-80
2022/09/13 00:58:51;;;;;;;30.73;23.35;;;17.80;99.90;;;;;;7393809;19;20022;-80
2022/09/13 01:01:19;;;;;;;28.08;22.98;;;17.80;99.90;;;;;;7391699;19;20015;-80
2022/09/13 01:03:47;;;;;;;26.15;23.15;;;17.80;99.90;;;;;;7398932;19;20025;-80
2022/09/13 01:06:21;;;;;;;17.80;15.68;;;17.70;99.90;;;;;;7398590;19;20354;-80
2022/09/13 01:08:51;;;;;;;25.73;22.48;;;17.80;99.90;;;;;;7399362;19;20046;-80
2022/09/13 01:11:26;;;;;;;25.55;21.17;;;17.70;99.90;;;;;;7400079;19;20018;-79
2022/09/13 01:13:54;;;;;;;24.55;17.25;;;17.80;99.90;;;;;;7399060;19;20092;-79
2022/09/13 01:16:20;;;;;;;14.60;12.57;;;17.80;99.90;;;;;;7399725;19;20014;-80
2022/09/13 01:18:46;;;;;;;15.75;11.43;;;17.80;99.90;;;;;;7398642;19;20039;-80
2022/09/13 01:21:37;;;;;;;23.33;18.63;;;17.80;99.90;;;;;;7400350;19;20015;-79
2022/09/13 01:24:40;;;;;;;24.00;19.63;;;17.80;99.90;;;;;;7400414;19;20525;-79
2022/09/13 01:27:30;;;;;;;19.00;15.48;;;17.80;99.90;;;;;;7395554;19;20014;-80
2022/09/13 01:30:18;;;;;;;28.02;20.63;;;17.90;99.90;;;;;;7399748;19;20018;-80
2022/09/13 01:32:55;;;;;;;22.83;17.67;;;17.90;99.90;;;;;;7401032;19;20516;-80
2022/09/13 01:35:36;;;;;;;15.02;11.98;;;17.90;99.90;;;;;;7397225;19;20151;-80
2022/09/13 01:38:11;;;;;;;26.67;20.48;;;18.00;99.90;;;;;;7399798;19;20468;-80
2022/09/13 01:41:05;;;;;;;17.80;14.85;;;18.00;99.90;;;;;;7399495;19;20010;-80
2022/09/13 01:44:09;;;;;;;23.20;17.33;;;18.10;99.90;;;;;;7395361;19;20015;-80
2022/09/13 01:47:03;;;;;;;16.40;14.57;;;18.10;99.90;;;;;;7399528;19;20013;-79
2022/09/13 01:49:51;;;;;;;12.50;9.57;;;18.00;99.90;;;;;;7395122;19;20082;-79
2022/09/13 01:52:43;;;;;;;17.80;15.85;;;18.00;99.90;;;;;;7395548;19;20014;-80
2022/09/13 01:55:26;;;;;;;17.40;13.90;;;18.00;99.90;;;;;;7393570;19;20203;-80
2022/09/13 01:58:18;;;;;;;9.95;8.93;;;18.10;99.90;;;;;;7398166;19;20034;-79
2022/09/13 02:00:55;;;;;;;16.10;12.60;;;18.00;99.90;;;;;;7398461;19;20073;-79
2022/09/13 02:03:36;;;;;;;17.58;14.63;;;18.00;99.90;;;;;;7398391;19;20039;-80
2022/09/13 02:06:12;;;;;;;11.63;10.40;;;18.10;99.90;;;;;;7396541;19;20022;-80
2022/09/13 02:08:44;;;;;;;15.75;13.23;;;18.00;99.90;;;;;;7397707;19;20018;-79
2022/09/13 02:11:16;;;;;;;14.57;12.38;;;18.10;99.90;;;;;;7398376;19;20011;-79
2022/09/13 02:14:17;;;;;;;16.73;14.57;;;18.00;99.90;;;;;;7397664;19;20090;-79
2022/09/13 02:16:49;;;;;;;16.25;14.15;;;18.00;99.90;;;;;;7397609;19;20094;-80
2022/09/13 02:19:37;;;;;;;16.85;13.98;;;17.90;99.90;;;;;;7398250;19;20080;-79
2022/09/13 02:22:07;;;;;;;13.15;11.73;;;17.90;99.90;;;;;;7395458;19;20085;-80
2022/09/13 02:24:38;;;;;;;18.45;13.73;;;17.90;99.90;;;;;;7399142;19;20334;-79
2022/09/13 02:27:11;;;;;;;19.48;14.48;;;17.90;99.90;;;;;;7396666;19;20014;-79
2022/09/13 02:29:41;;;;;;;17.20;12.40;;;17.90;99.90;;;;;;7397403;19;20014;-79
2022/09/13 02:32:17;;;;;;;15.85;12.68;;;17.90;99.90;;;;;;7396391;19;20022;-79
2022/09/13 02:34:51;;;;;;;15.88;13.10;;;17.90;99.90;;;;;;7397437;19;20026;-80
2022/09/13 02:37:18;;;;;;;15.25;12.90;;;17.80;99.90;;;;;;7396303;19;20018;-80
2022/09/13 02:39:55;;;;;;;14.80;11.18;;;17.80;99.90;;;;;;7398062;19;20014;-80
2022/09/13 02:42:28;;;;;;;8.93;7.60;;;17.80;99.90;;;;;;7396021;19;20018;-80
2022/09/13 02:44:55;;;;;;;;;;;17.80;99.90;;;;;;7400619;19;20038;-80
2022/09/13 02:48:03;;;;;;;9.02;7.57;;;17.80;99.90;;;;;;7395871;19;19922;-80
2022/09/13 02:51:00;;;;;;;11.57;8.68;;;17.80;99.90;;;;;;7395849;19;20025;-80
2022/09/13 02:53:44;;;;;;;13.27;9.80;;;17.80;99.90;;;;;;7395806;19;20484;-80
2022/09/13 02:56:23;;;;;;;13.25;10.43;;;17.90;99.90;;;;;;7397108;19;20395;-80
2022/09/13 02:59:01;;;;;;;14.82;10.75;;;17.90;99.90;;;;;;7395176;19;20033;-79
2022/09/13 03:01:27;;;;;;;10.45;8.55;;;17.90;99.90;;;;;;7395904;19;20022;-80
2022/09/13 03:03:53;;;;;;;12.50;10.02;;;17.90;99.90;;;;;;7394755;19;20052;-80
2022/09/13 03:06:27;;;;;;;12.02;10.52;;;18.00;99.90;;;;;;7397361;19;20010;-79
2022/09/13 03:08:55;;;;;;;9.73;8.77;;;18.00;99.90;;;;;;7394427;19;20024;-79
2022/09/13 03:11:30;;;;;;;12.38;10.60;;;18.10;99.90;;;;;;7394339;19;20018;-79
2022/09/13 03:14:29;;;;;;;14.07;12.57;;;18.10;99.90;;;;;;7396083;19;20018;-79
2022/09/13 03:17:10;;;;;;;14.65;12.50;;;18.10;99.90;;;;;;7394669;19;20383;-80
2022/09/13 03:19:58;;;;;;;13.05;11.25;;;18.10;99.90;;;;;;7396849;19;20010;-80
2022/09/13 03:22:36;;;;;;;13.23;10.10;;;18.10;99.90;;;;;;7397074;19;20543;-80
2022/09/13 03:25:33;;;;;;;13.80;12.10;;;18.20;99.90;;;;;;7396609;19;20022;-80
2022/09/13 03:28:14;;;;;;;10.40;8.35;;;18.20;99.90;;;;;;7393351;19;20029;-80
2022/09/13 03:30:48;;;;;;;17.83;12.70;;;18.30;99.90;;;;;;7393977;19;20074;-81
2022/09/13 03:33:41;;;;;;;16.38;12.60;;;18.30;99.90;;;;;;7398242;19;20014;-80
2022/09/13 03:36:15;;;;;;;19.63;14.40;;;18.20;99.90;;;;;;7393325;19;20007;-80
2022/09/13 03:38:53;;;;;;;15.15;13.55;;;18.10;99.90;;;;;;7394691;19;20070;-80
2022/09/13 03:41:25;;;;;;;18.00;13.00;;;18.10;99.90;;;;;;7394994;19;20018;-80
2022/09/13 03:43:56;;;;;;;19.75;13.70;;;18.10;99.90;;;;;;7393905;19;20015;-80
2022/09/13 03:46:33;;;;;;;17.70;14.57;;;18.10;99.90;;;;;;7392745;19;20464;-80
2022/09/13 03:49:05;;;;;;;15.98;14.02;;;18.20;99.90;;;;;;7392204;19;20019;-80
2022/09/13 03:51:32;;;;;;;19.02;15.57;;;18.20;99.90;;;;;;7395220;19;20420;-80
2022/09/13 03:54:03;;;;;;;17.27;13.40;;;18.10;99.90;;;;;;7393501;19;20035;-79
2022/09/13 03:56:29;;;;;;;9.30;7.43;;;18.00;99.90;;;;;;7393238;19;20530;-79
2022/09/13 03:58:54;;;;;;;16.48;11.95;;;18.10;99.90;;;;;;7394091;19;20074;-79
2022/09/13 04:01:22;;;;;;;18.20;14.25;;;18.10;99.90;;;;;;7389448;19;20015;-80
2022/09/13 04:03:49;;;;;;;25.02;15.65;;;17.90;99.90;;;;;;7395618;19;20015;-79
2022/09/13 04:06:15;;;;;;;10.73;9.50;;;18.00;99.90;;;;;;7393180;19;20018;-79
2022/09/13 04:08:41;;;;;;;7.70;6.38;;;17.90;99.90;;;;;;7392720;19;20018;-79
2022/09/13 04:11:08;;;;;;;9.40;6.75;;;17.90;99.90;;;;;;7391906;19;20488;-79
2022/09/13 04:13:35;;;;;;;12.05;8.95;;;17.90;99.90;;;;;;7393836;19;20160;-79
2022/09/13 04:16:03;;;;;;;9.68;8.10;;;17.90;99.90;;;;;;7392478;19;20368;-79
2022/09/13 04:18:29;;;;;;;10.82;9.10;;;17.80;99.90;;;;;;7394396;19;20035;-79
2022/09/13 04:20:59;;;;;;;14.45;10.20;;;17.70;99.90;;;;;;7395809;19;20043;-79
2022/09/13 04:23:28;;;;;;;17.80;11.43;;;17.70;99.90;;;;;;7394537;19;20018;-79
2022/09/13 04:25:54;;;;;;;8.48;7.55;;;17.70;99.90;;;;;;7393799;19;20014;-79
2022/09/13 04:28:21;;;;;;;14.00;11.50;;;17.70;99.90;;;;;;7391117;19;20018;-79
2022/09/13 04:30:48;;;;;;;22.95;14.88;;;17.70;99.90;;;;;;7392707;19;20030;-79
2022/09/13 04:33:16;;;;;;;13.80;12.00;;;17.70;99.90;;;;;;7392910;19;20014;-79
2022/09/13 04:35:42;;;;;;;18.23;13.27;;;17.70;99.90;;;;;;7393073;19;20049;-79
2022/09/13 04:38:08;;;;;;;19.95;13.43;;;17.80;99.90;;;;;;7394061;19;20043;-79
2022/09/13 04:40:34;;;;;;;15.05;10.40;;;17.80;99.90;;;;;;7398767;19;20018;-78
2022/09/13 04:43:00;;;;;;;14.40;11.43;;;17.80;99.90;;;;;;7396780;19;20014;-79
2022/09/13 04:45:27;;;;;;;14.88;11.25;;;17.80;99.90;;;;;;7401517;19;20022;-79
2022/09/13 04:47:55;;;;;;;12.82;10.38;;;17.80;99.90;;;;;;7399149;19;20038;-79
2022/09/13 04:50:22;;;;;;;10.00;8.80;;;17.70;99.90;;;;;;7399480;19;20034;-79
2022/09/13 04:52:49;;;;;;;9.75;7.53;;;17.70;99.90;;;;;;7396876;19;20129;-80
2022/09/13 04:55:15;;;;;;;7.93;7.10;;;17.70;99.90;;;;;;7401503;19;20110;-79
2022/09/13 04:57:41;;;;;;;10.70;7.20;;;17.60;99.90;;;;;;7399467;19;20085;-80
2022/09/13 05:00:08;;;;;;;7.07;5.05;;;17.60;99.90;;;;;;7399194;19;20027;-80
2022/09/13 05:02:34;;;;;;;9.88;5.63;;;17.60;99.90;;;;;;7400498;19;20397;-80
2022/09/13 05:05:00;;;;;;;5.72;3.40;;;17.50;99.90;;;;;;7396633;19;20014;-83
2022/09/13 05:07:26;;;;;;;5.80;3.83;;;17.50;99.90;;;;;;7396492;19;20014;-80
2022/09/13 05:09:52;;;;;;;5.60;2.85;;;17.60;99.90;;;;;;7403310;19;20503;-80
2022/09/13 05:12:17;;;;;;;3.70;2.90;;;17.60;99.90;;;;;;7399308;19;20086;-80
2022/09/13 05:14:43;;;;;;;4.68;2.60;;;17.50;99.90;;;;;;7396428;19;20052;-80
2022/09/13 05:17:09;;;;;;;6.15;3.25;;;17.50;99.90;;;;;;7397627;19;20023;-79
2022/09/13 05:19:35;;;;;;;4.03;2.45;;;17.50;99.90;;;;;;7396956;19;20078;-80
2022/09/13 05:22:01;;;;;;;4.05;2.40;;;17.50;99.90;;;;;;7398581;19;20370;-79
2022/09/13 05:24:28;;;;;;;7.03;3.30;;;17.50;99.90;;;;;;7398790;19;20036;-79
2022/09/13 05:26:54;;;;;;;6.53;2.38;;;17.50;99.90;;;;;;7395481;19;20018;-80
2022/09/13 05:29:19;;;;;;;8.43;3.17;;;17.50;99.90;;;;;;7396267;19;20418;-80
2022/09/13 05:31:45;;;;;;;6.95;3.22;;;17.40;99.90;;;;;;7397962;19;20350;-80
2022/09/13 05:34:13;;;;;;;9.10;3.42;;;17.40;99.90;;;;;;7397970;19;20031;-79
2022/09/13 05:36:40;;;;;;;6.72;3.38;;;17.40;99.90;;;;;;7397414;19;20027;-80
2022/09/13 05:39:10;;;;;;;7.20;3.55;;;17.40;99.90;;;;;;7400302;19;20575;-79
2022/09/13 05:41:36;;;;;;;4.18;2.50;;;17.40;99.90;;;;;;7397305;19;20019;-79
2022/09/13 05:44:02;;;;;;;4.78;3.65;;;17.40;99.90;;;;;;7395791;19;20357;-80
2022/09/13 05:46:28;;;;;;;4.60;3.22;;;17.50;99.90;;;;;;7395208;19;20007;-80
2022/09/13 05:48:58;;;;;;;7.32;4.10;;;17.50;99.90;;;;;;7395585;19;20374;-79
2022/09/13 05:51:24;;;;;;;5.22;3.75;;;17.50;99.90;;;;;;7401734;19;20014;-79
2022/09/13 05:53:53;;;;;;;8.70;4.70;;;17.50;99.90;;;;;;7396482;19;20014;-80
2022/09/13 05:56:25;;;;;;;9.75;5.20;;;17.50;99.90;;;;;;7400206;19;20503;-80
2022/09/13 05:58:52;;;;;;;9.00;4.60;;;17.50;99.90;;;;;;7399067;19;20010;-80
2022/09/13 06:01:23;;;;;;;4.50;2.63;;;17.50;99.90;;;;;;7397459;19;20343;-79
2022/09/13 06:03:50;;;;;;;4.93;2.80;;;17.60;99.90;;;;;;7397785;19;20334;-78
2022/09/13 06:06:16;;;;;;;4.20;2.05;;;17.70;99.90;;;;;;7395615;19;20017;-80
2022/09/13 06:08:42;;;;;;;7.95;3.65;;;17.70;99.90;;;;;;7397169;19;20461;-79
2022/09/13 06:11:11;;;;;;;6.97;3.50;;;17.70;99.90;;;;;;7397185;19;20030;-79
2022/09/13 06:13:37;;;;;;;6.85;2.17;;;17.70;99.90;;;;;;7397817;19;20026;-79
2022/09/13 06:16:06;;;;;;;7.28;2.00;;;17.70;99.90;;;;;;7394889;19;20018;-80
2022/09/13 06:18:32;;;;;;;6.35;2.45;;;17.60;99.90;;;;;;7396157;19;20051;-79
2022/09/13 06:21:00;;;;;;;8.80;1.63;;;17.60;99.90;;;;;;7394486;19;20015;-81
2022/09/13 06:23:27;;;;;;;8.93;1.98;;;17.50;99.90;;;;;;7397800;19;20022;-80
2022/09/13 06:26:00;;;;;;;6.55;1.27;;;17.40;99.90;;;;;;7396296;19;20431;-79
2022/09/13 06:28:26;;;;;;;8.10;1.27;;;17.40;99.90;;;;;;7398789;19;20021;-80
2022/09/13 06:30:58;;;;;;;10.52;1.80;;;17.40;99.90;;;;;;7399121;19;20010;-80
2022/09/13 06:33:24;;;;;;;4.65;1.17;;;17.40;99.90;;;;;;7396201;19;20522;-80
2022/09/13 06:35:49;;;;;;;7.88;1.45;;;17.40;99.90;;;;;;7397901;19;20018;-79
2022/09/13 06:38:15;;;;;;;6.38;1.50;;;17.40;99.90;;;;;;7393812;19;20476;-80
2022/09/13 06:40:41;;;;;;;8.50;1.48;;;17.50;99.90;;;;;;7394883;19;20530;-79
2022/09/13 06:43:07;;;;;;;14.02;1.55;;;17.50;99.90;;;;;;7396957;19;20625;-79
2022/09/13 06:45:33;;;;;;;8.60;1.50;;;17.60;99.90;;;;;;7397713;19;20022;-80
2022/09/13 06:47:59;;;;;;;6.78;1.30;;;17.70;99.90;;;;;;7398041;19;20003;-80
2022/09/13 06:50:24;;;;;;;10.57;1.50;;;17.70;99.90;;;;;;7397277;19;20015;-79
2022/09/13 06:52:50;;;;;;;6.18;1.40;;;17.80;99.90;;;;;;7395183;19;20039;-79
2022/09/13 06:55:16;;;;;;;8.68;1.20;;;17.80;99.90;;;;;;7395094;19;20007;-79
2022/09/13 06:57:42;;;;;;;6.07;1.60;;;17.90;99.90;;;;;;7393413;19;20017;-79
2022/09/13 07:00:09;;;;;;;8.73;1.30;;;17.90;99.90;;;;;;7392504;19;20356;-80
2022/09/13 07:02:34;;;;;;;6.32;1.10;;;18.00;99.90;;;;;;7398804;19;20085;-79
2022/09/13 07:05:01;;;;;;;10.02;1.63;;;18.10;99.90;;;;;;7397635;19;20013;-80
2022/09/13 07:07:26;;;;;;;9.25;1.40;;;18.10;99.90;;;;;;7391574;19;20006;-79
2022/09/13 07:09:52;;;;;;;8.10;1.25;;;18.10;99.90;;;;;;7394509;19;20006;-80
2022/09/13 07:12:18;;;;;;;9.30;1.27;;;18.20;99.90;;;;;;7395650;19;20081;-79
2022/09/13 07:14:44;;;;;;;6.47;1.08;;;18.20;99.90;;;;;;7394752;19;20030;-79
2022/09/13 07:17:10;;;;;;;8.05;1.40;;;18.30;99.90;;;;;;7392325;19;20566;-79
2022/09/13 07:19:35;;;;;;;6.75;1.30;;;18.40;99.90;;;;;;7394264;19;20014;-79
2022/09/13 07:22:01;;;;;;;5.07;1.08;;;18.40;99.90;;;;;;7398808;19;20014;-79
2022/09/13 07:24:27;;;;;;;9.70;1.38;;;18.50;99.90;;;;;;7392796;19;20410;-79
2022/09/13 07:26:54;;;;;;;10.30;1.52;;;18.60;99.90;;;;;;7393002;19;20035;-79
2022/09/13 07:29:24;;;;;;;5.10;1.30;;;18.90;99.90;;;;;;7392119;19;20035;-80
2022/09/13 07:31:53;;;;;;;6.07;1.50;;;19.90;99.90;;;;;;7394489;19;20015;-79
2022/09/13 07:34:21;;;;;;;7.50;1.10;;;20.80;99.90;;;;;;7394119;19;20483;-79
2022/09/13 07:36:48;;;;;;;7.28;1.23;;;20.90;99.90;;;;;;7393730;19;20031;-80
2022/09/13 07:39:16;;;;;;;8.75;1.30;;;21.10;99.90;;;;;;7395767;19;20527;-79
2022/09/13 07:41:42;;;;;;;7.40;1.27;;;21.30;99.90;;;;;;7392927;19;20480;-79
2022/09/13 07:44:10;;;;;;;8.85;1.30;;;21.60;99.90;;;;;;7393128;19;20014;-80
2022/09/13 07:46:42;;;;;;;3.20;0.90;;;22.00;99.90;;;;;;7392485;19;20039;-79
2022/09/13 07:49:09;;;;;;;6.72;2.13;;;21.70;99.90;;;;;;7392255;19;20038;-80
2022/09/13 07:51:38;;;;;;;5.93;1.33;;;21.70;99.90;;;;;;7398017;19;20007;-80
2022/09/13 07:54:08;;;;;;;6.53;0.98;;;21.50;99.90;;;;;;7394058;19;20514;-79
2022/09/13 07:56:36;;;;;;;3.65;1.00;;;20.90;99.90;;;;;;7391486;19;20044;-80
2022/09/13 07:59:04;;;;;;;4.30;1.10;;;20.50;99.90;;;;;;7393156;19;20329;-80
2022/09/13 08:01:39;;;;;;;7.68;1.20;;;20.30;99.90;;;;;;7389626;19;20549;-80
2022/09/13 08:04:08;;;;;;;5.05;1.05;;;20.60;99.90;;;;;;7391498;19;20051;-79
2022/09/13 08:06:35;;;;;;;5.35;0.57;;;20.70;99.90;;;;;;7394352;19;20018;-79
2022/09/13 08:09:02;;;;;;;3.20;0.80;;;20.30;99.90;;;;;;7392917;19;20035;-80
2022/09/13 08:11:34;;;;;;;7.55;1.05;;;20.20;99.90;;;;;;7392517;19;20014;-81
2022/09/13 08:14:01;;;;;;;6.20;1.20;;;20.00;99.90;;;;;;7391350;19;20006;-81
2022/09/13 08:16:28;;;;;;;9.25;1.00;;;19.90;99.90;;;;;;7390597;19;20028;-81
2022/09/13 08:18:57;;;;;;;4.80;0.82;;;19.90;99.90;;;;;;7393915;19;20010;-83
2022/09/13 08:21:24;;;;;;;4.38;1.08;;;20.00;99.90;;;;;;7393987;19;20090;-84
2022/09/13 08:23:55;;;;;;;7.50;0.90;;;20.20;99.90;;;;;;7391804;19;20014;-84
2022/09/13 08:26:21;;;;;;;8.93;1.17;;;20.40;99.90;;;;;;7395348;19;20059;-82
2022/09/13 08:28:48;;;;;;;6.57;0.90;;;20.30;99.90;;;;;;7393365;19;20349;-82
2022/09/13 08:31:16;;;;;;;6.68;0.80;;;20.10;99.90;;;;;;7391040;19;20078;-82
2022/09/13 08:33:44;;;;;;;5.70;0.90;;;19.90;99.90;;;;;;7394949;19;20558;-84
2022/09/13 08:36:10;;;;;;;4.10;1.27;;;20.00;99.90;;;;;;7389300;19;20370;-83
2022/09/13 08:38:36;;;;;;;9.88;1.20;;;20.10;99.90;;;;;;7391363;19;20539;-82
2022/09/13 08:41:15;;;;;;;6.07;0.85;;;20.20;99.90;;;;;;7389792;19;20100;-83
2022/09/13 08:44:02;;;;;;;10.10;1.55;;;20.20;99.90;;;;;;7388945;19;20031;-83
2022/09/13 08:46:44;;;;;;;5.00;1.05;;;20.50;99.90;;;;;;7391880;19;20078;-83
2022/09/13 08:49:32;;;;;;;7.05;0.93;;;20.70;99.90;;;;;;7389978;19;20015;-83
2022/09/13 08:52:18;;;;;;;4.18;0.73;;;20.90;99.90;;;;;;7393202;19;20056;-84
2022/09/13 08:54:44;;;;;;;7.22;1.00;;;20.90;99.90;;;;;;7393860;19;20042;-84
2022/09/13 08:57:26;;;;;;;6.88;1.20;;;20.50;99.90;;;;;;7391124;19;20011;-84
2022/09/13 09:00:16;;;;;;;3.95;0.90;;;20.10;99.90;;;;;;7381280;19;20374;-83
2022/09/13 09:02:47;;;;;;;5.68;1.00;;;19.70;99.90;;;;;;7381107;19;20022;-83
2022/09/13 09:05:20;;;;;;;5.47;1.00;;;19.80;99.90;;;;;;7389042;19;20437;-83
2022/09/13 09:08:21;;;;;;;7.25;0.88;;;19.90;99.90;;;;;;7387320;19;20039;-83
2022/09/13 09:10:49;;;;;;;8.63;0.98;;;20.00;99.90;;;;;;7389709;19;20518;-83
2022/09/13 09:13:34;;;;;;;5.10;0.70;;;20.10;99.90;;;;;;7389135;19;20014;-82
2022/09/13 09:16:24;;;;;;;5.60;0.73;;;20.00;99.90;;;;;;7386062;19;20015;-83
2022/09/13 09:18:51;;;;;;;5.78;0.88;;;20.10;99.90;;;;;;7388413;19;20035;-83
2022/09/13 09:21:18;;;;;;;4.10;1.00;;;20.30;99.90;;;;;;7384332;19;20381;-84
2022/09/13 09:23:52;;;;;;;4.30;0.70;;;20.60;99.90;;;;;;7391727;19;20492;-84
2022/09/13 09:26:27;;;;;;;10.60;1.38;;;20.70;99.90;;;;;;7393814;19;20503;-83
2022/09/13 09:29:00;;;;;;;4.80;1.00;;;20.50;99.90;;;;;;7388377;19;20352;-83
2022/09/13 09:31:34;;;;;;;3.88;0.70;;;20.40;99.90;;;;;;7398560;19;20014;-84
2022/09/13 09:34:30;;;;;;;7.30;0.80;;;20.30;99.90;;;;;;7400192;19;20023;-83
2022/09/13 09:37:18;;;;;;;5.70;0.70;;;20.40;99.90;;;;;;7398749;19;20045;-83
2022/09/13 09:39:44;;;;;;;5.97;0.63;;;20.60;99.90;;;;;;7394137;19;20011;-84
2022/09/13 09:42:21;;;;;;;5.05;0.80;;;20.60;99.90;;;;;;7399174;19;20388;-83
2022/09/13 09:45:14;;;;;;;6.03;1.48;;;20.80;99.90;;;;;;7394349;19;20017;-84
2022/09/13 09:47:45;;;;;;;6.05;0.80;;;21.00;99.90;;;;;;7393550;19;20019;-83
2022/09/13 09:50:17;;;;;;;7.78;0.95;;;21.20;99.90;;;;;;7395493;19;20010;-83
2022/09/13 09:52:58;;;;;;;5.57;1.10;;;21.20;99.90;;;;;;7395937;19;20026;-83
2022/09/13 09:55:47;;;;;;;6.60;0.70;;;21.20;99.90;;;;;;7393335;19;20019;-83
2022/09/13 09:58:17;;;;;;;4.75;0.80;;;21.50;99.90;;;;;;7395062;19;20484;-85
2022/09/13 10:00:57;;;;;;;8.57;1.00;;;21.40;99.90;;;;;;7395644;19;20015;-82
2022/09/13 10:03:29;;;;;;;6.38;1.00;;;21.50;99.90;;;;;;7394991;19;20021;-83
2022/09/13 10:06:13;;;;;;;3.55;0.70;;;21.10;99.90;;;;;;7396645;19;20033;-84
2022/09/13 10:08:47;;;;;;;8.32;1.00;;;21.00;99.90;;;;;;7397107;19;20030;-84
2022/09/13 10:11:13;;;;;;;7.22;1.08;;;20.90;99.90;;;;;;7397744;19;20516;-84
2022/09/13 10:14:00;;;;;;;6.15;1.15;;;21.20;99.90;;;;;;7398347;19;20014;-84
2022/09/13 10:16:29;;;;;;;4.28;0.90;;;21.50;99.90;;;;;;7394421;19;20018;-83
2022/09/13 10:19:23;;;;;;;8.00;1.20;;;21.80;99.90;;;;;;7394077;19;20018;-83
2022/09/13 10:22:10;;;;;;;5.78;0.70;;;22.00;99.90;;;;;;7394902;19;20089;-83
2022/09/13 10:24:36;;;;;;;7.45;0.95;;;21.80;99.90;;;;;;7397276;19;20018;-83
2022/09/13 10:27:05;;;;;;;6.55;1.15;;;21.50;99.90;;;;;;7395374;19;20153;-83
2022/09/13 10:29:32;;;;;;;3.85;1.00;;;21.30;99.90;;;;;;7396495;19;20039;-84
2022/09/13 10:32:03;;;;;;;9.50;1.45;;;21.20;99.90;;;;;;7393342;19;20488;-84
2022/09/13 10:34:33;;;;;;;5.97;1.00;;;21.40;99.90;;;;;;7392467;19;20039;-84
2022/09/13 10:37:03;;;;;;;4.63;0.80;;;21.50;99.90;;;;;;7395706;19;20025;-84
2022/09/13 10:39:35;;;;;;;5.68;1.00;;;21.30;99.90;;;;;;7399007;19;20015;-82
2022/09/13 10:42:06;;;;;;;5.47;1.07;;;21.10;99.90;;;;;;7396245;19;20025;-84
2022/09/13 10:44:50;;;;;;;5.38;0.80;;;20.90;99.90;;;;;;7395562;19;20027;-83
2022/09/13 10:47:23;;;;;;;5.57;0.95;;;20.90;99.90;;;;;;7392861;19;20019;-84
2022/09/13 10:49:51;;;;;;;6.55;0.68;;;20.90;99.90;;;;;;7397874;19;20039;-85
2022/09/13 10:52:26;;;;;;;5.40;1.08;;;20.80;99.90;;;;;;7393368;19;20073;-86
2022/09/13 10:54:53;;;;;;;10.25;1.17;;;20.70;99.90;;;;;;7392715;19;20010;-84
2022/09/13 10:57:35;;;;;;;5.70;1.10;;;20.60;99.90;;;;;;7394879;19;20018;-84
2022/09/13 11:00:09;;;;;;;8.30;1.30;;;20.60;99.90;;;;;;7392321;19;20523;-84
2022/09/13 11:02:47;;;;;;;6.72;0.98;;;20.90;99.90;;;;;;7394884;19;20100;-84
2022/09/13 11:05:23;;;;;;;7.32;1.10;;;21.00;99.90;;;;;;7393416;19;20006;-84
2022/09/13 11:08:04;;;;;;;9.57;1.23;;;20.80;99.90;;;;;;7389114;19;20048;-85
2022/09/13 11:10:44;;;;;;;5.70;0.88;;;20.70;99.90;;;;;;7391822;19;20014;-84
2022/09/13 11:13:20;;;;;;;3.90;0.70;;;20.80;99.90;;;;;;7389827;19;20031;-84
2022/09/13 11:16:03;;;;;;;9.73;1.25;;;20.80;99.90;;;;;;7391563;19;20015;-85
2022/09/13 11:19:03;;;;;;;6.07;1.10;;;21.10;99.90;;;;;;7389719;19;20019;-81
2022/09/13 11:21:48;;;;;;;6.55;0.60;;;21.30;99.90;;;;;;7391164;19;20011;-81
2022/09/13 11:24:27;;;;;;;4.13;0.82;;;21.60;99.90;;;;;;7392500;19;20018;-81
2022/09/13 11:27:08;;;;;;;4.50;0.82;;;21.90;99.90;;;;;;7390098;19;20352;-81
2022/09/13 11:29:56;;;;;;;5.65;0.80;;;22.10;99.90;;;;;;7394321;19;20025;-81
2022/09/13 11:32:31;;;;;;;5.15;0.77;;;22.10;99.90;;;;;;7393241;19;20022;-81
2022/09/13 11:35:21;;;;;;;7.18;1.00;;;21.70;99.90;;;;;;7392302;19;20068;-81
2022/09/13 11:38:20;;;;;;;3.78;0.75;;;21.40;99.90;;;;;;7391393;19;20022;-82
2022/09/13 11:40:59;;;;;;;6.97;1.10;;;21.40;99.90;;;;;;7390161;19;20126;-81
2022/09/13 11:43:27;;;;;;;6.32;0.88;;;21.60;99.90;;;;;;7390032;19;20022;-82
2022/09/13 11:46:11;;;;;;;3.38;0.65;;;21.70;99.90;;;;;;7389244;19;20011;-82
2022/09/13 11:49:22;;;;;;;3.88;0.52;;;21.90;99.90;;;;;;7392163;19;20010;-82
2022/09/13 11:52:01;;;;;;;7.65;0.90;;;21.90;99.90;;;;;;7387351;19;20070;-81
2022/09/13 11:54:52;;;;;;;5.35;0.80;;;21.90;99.90;;;;;;7390128;19;20014;-81
2022/09/13 11:57:33;;;;;;;6.50;0.70;;;21.90;99.90;;;;;;7389854;19;20010;-82
2022/09/13 12:00:11;;;;;;;5.32;0.82;;;22.10;99.90;;;;;;7389607;19;20026;-82
2022/09/13 12:02:48;;;;;;;5.57;1.08;;;22.10;99.90;;;;;;7392986;19;20022;-81
2022/09/13 12:05:23;;;;;;;3.70;0.63;;;22.20;99.80;;;;;;7389973;19;20010;-81
2022/09/13 12:08:12;;;;;;;3.83;0.68;;;22.20;99.90;;;;;;7388391;19;20014;-81
2022/09/13 12:10:51;;;;;;;4.13;0.77;;;22.20;99.90;;;;;;7394352;19;20074;-82
2022/09/13 12:13:35;;;;;;;4.50;0.68;;;22.20;99.80;;;;;;7389478;19;20019;-81
2022/09/13 12:16:08;;;;;;;3.67;0.77;;;22.20;99.50;;;;;;7385580;19;20490;-82
2022/09/13 12:18:44;;;;;;;4.80;1.00;;;22.00;99.90;;;;;;7391419;19;20039;-80
2022/09/13 12:21:22;;;;;;;7.65;0.90;;;21.70;99.90;;;;;;7388168;19;20018;-83
2022/09/13 12:24:15;;;;;;;6.15;0.90;;;21.50;99.90;;;;;;7392171;19;20019;-83
2022/09/13 12:27:09;;;;;;;6.00;1.20;;;21.50;99.90;;;;;;7391273;19;20035;-83
2022/09/13 12:29:53;;;;;;;6.70;0.98;;;21.70;99.90;;;;;;7392365;19;20433;-80
2022/09/13 12:32:22;;;;;;;5.50;1.00;;;21.80;99.90;;;;;;7391274;19;20030;-81
2022/09/13 12:35:06;;;;;;;6.32;0.95;;;21.90;99.90;;;;;;7386798;19;20516;-82
2022/09/13 12:37:59;;;;;;;6.75;0.85;;;22.00;99.90;;;;;;7387241;19;20010;-83
2022/09/13 12:40:44;;;;;;;;;;;22.10;99.90;;;;;;7388539;19;20011;-83
2022/09/13 12:43:18;;;;;;;5.40;0.95;;;22.10;99.90;;;;;;7390142;19;19936;-82
2022/09/13 12:46:02;;;;;;;7.75;1.05;;;22.00;99.90;;;;;;7389383;19;20505;-84
2022/09/13 12:48:38;;;;;;;5.75;0.98;;;22.00;99.90;;;;;;7393074;19;20388;-84
2022/09/13 12:51:15;;;;;;;10.38;1.13;;;21.80;99.90;;;;;;7388013;19;20014;-83
2022/09/13 12:53:47;;;;;;;9.07;1.00;;;21.70;99.90;;;;;;7389859;19;20018;-83
2022/09/13 12:56:50;;;;;;;6.88;1.08;;;21.60;99.90;;;;;;7388665;19;20077;-83
2022/09/13 12:59:37;;;;;;;7.05;1.00;;;21.50;99.90;;;;;;7393735;19;20018;-82
2022/09/13 13:02:33;;;;;;;7.78;1.20;;;21.50;99.90;;;;;;7400253;19;20007;-83
2022/09/13 13:05:03;;;;;;;6.43;1.10;;;21.50;99.90;;;;;;7394260;19;20014;-82
2022/09/13 13:07:33;;;;;;;6.03;0.80;;;21.50;99.90;;;;;;7391665;19;20015;-82
2022/09/13 13:09:59;;;;;;;8.57;1.60;;;21.40;99.90;;;;;;7396419;19;20051;-81
2022/09/13 13:12:31;;;;;;;7.38;1.13;;;21.40;99.90;;;;;;7396588;19;20035;-81
2022/09/13 13:14:58;;;;;;;7.38;1.00;;;21.40;99.90;;;;;;7395061;19;20018;-82